sensor_id;sensor_type;location;lat;lon;timestamp;pressure;altitude;pressure_sealevel;temperature;humidity
51526;BME280;37611;51.794;21.590;2023-01-26T00:00:54;100884.00;;;0.10;100.00
51526;BME280;37611;51.794;21.590;2023-01-26T00:04:56;100881.23;;;0.18;100.00
51526;BME280;37611;51.794;21.590;2023-01-26T00:08:57;100878.61;;;0.23;100.00
51526;BME280;37611;51.794;21.590;2023-01-26T00:12:58;100875.34;;;0.19;100.00
51526;BME280;37611;51.794;21.590;2023-01-26T00:16:59;100879.09;;;0.20;100.00
51526;BME280;37611;51.794;21.590;2023-01-26T00:21:01;100878.54;;;0.20;100.00
51526;BME280;37611;51.794;21.590;2023-01-26T00:25:02;100878.75;;;0.16;100.00
51526;BME280;37611;51.794;21.590;2023-01-26T00:29:04;100874.48;;;0.11;100.00
51526;BME280;37611;51.794;21.590;2023-01-26T00:33:05;100869.29;;;0.11;100.00
51526;BME280;37611;51.794;21.590;2023-01-26T00:37:06;100870.94;;;0.13;100.00
51526;BME280;37611;51.794;21.590;2023-01-26T00:41:07;100870.97;;;0.16;100.00
51526;BME280;37611;51.794;21.590;2023-01-26T00:45:08;100867.95;;;0.23;100.00
51526;BME280;37611;51.794;21.590;2023-01-26T00:49:09;100861.52;;;0.24;100.00
51526;BME280;37611;51.794;21.590;2023-01-26T00:53:10;100853.15;;;0.22;100.00
51526;BME280;37611;51.794;21.590;2023-01-26T00:57:11;100849.48;;;0.23;100.00
51526;BME280;37611;51.794;21.590;2023-01-26T01:01:13;100847.40;;;0.20;100.00
51526;BME280;37611;51.794;21.590;2023-01-26T01:05:14;100847.70;;;0.17;100.00
51526;BME280;37611;51.794;21.590;2023-01-26T01:09:15;100843.27;;;0.12;100.00
51526;BME280;37611;51.794;21.590;2023-01-26T01:13:16;100840.37;;;0.11;100.00
51526;BME280;37611;51.794;21.590;2023-01-26T01:17:17;100837.52;;;0.14;100.00
51526;BME280;37611;51.794;21.590;2023-01-26T01:21:19;100835.67;;;0.20;100.00
51526;BME280;37611;51.794;21.590;2023-01-26T01:25:20;100831.28;;;0.22;100.00
51526;BME280;37611;51.794;21.590;2023-01-26T01:29:21;100828.88;;;0.21;100.00
51526;BME280;37611;51.794;21.590;2023-01-26T01:33:22;100825.21;;;0.19;100.00
51526;BME280;37611;51.794;21.590;2023-01-26T01:37:23;100827.64;;;0.23;100.00
51526;BME280;37611;51.794;21.590;2023-01-26T01:41:24;100823.63;;;0.24;100.00
51526;BME280;37611;51.794;21.590;2023-01-26T01:49:45;100810.17;;;0.24;100.00
51526;BME280;37611;51.794;21.590;2023-01-26T01:53:49;100809.70;;;0.23;100.00
51526;BME280;37611;51.794;21.590;2023-01-26T01:57:57;100803.61;;;0.21;100.00
51526;BME280;37611;51.794;21.590;2023-01-26T02:02:00;100804.68;;;0.20;100.00
51526;BME280;37611;51.794;21.590;2023-01-26T02:06:09;100796.38;;;0.21;100.00
51526;BME280;37611;51.794;21.590;2023-01-26T02:10:12;100794.82;;;0.21;100.00
51526;BME280;37611;51.794;21.590;2023-01-26T02:14:19;100790.20;;;0.20;100.00
51526;BME280;37611;51.794;21.590;2023-01-26T02:18:20;100785.20;;;0.17;100.00
51526;BME280;37611;51.794;21.590;2023-01-26T02:26:34;100771.67;;;0.07;100.00
51526;BME280;37611;51.794;21.590;2023-01-26T02:30:35;100766.05;;;0.05;100.00
51526;BME280;37611;51.794;21.590;2023-01-26T02:34:36;100758.51;;;0.05;100.00
51526;BME280;37611;51.794;21.590;2023-01-26T02:38:43;100755.45;;;-0.00;100.00
51526;BME280;37611;51.794;21.590;2023-01-26T02:42:44;100748.73;;;-0.08;100.00
51526;BME280;37611;51.794;21.590;2023-01-26T02:46:45;100746.47;;;-0.12;100.00
51526;BME280;37611;51.794;21.590;2023-01-26T02:50:46;100747.34;;;-0.12;100.00
51526;BME280;37611;51.794;21.590;2023-01-26T02:54:47;100741.28;;;-0.11;100.00
51526;BME280;37611;51.794;21.590;2023-01-26T02:59:07;100736.41;;;-0.14;100.00
51526;BME280;37611;51.794;21.590;2023-01-26T03:03:16;100729.59;;;-0.15;100.00
51526;BME280;37611;51.794;21.590;2023-01-26T03:07:18;100728.41;;;-0.16;100.00
51526;BME280;37611;51.794;21.590;2023-01-26T03:11:19;100719.66;;;-0.17;100.00
51526;BME280;37611;51.794;21.590;2023-01-26T03:15:20;100715.16;;;-0.16;100.00
51526;BME280;37611;51.794;21.590;2023-01-26T03:19:40;100710.80;;;-0.15;100.00
51526;BME280;37611;51.794;21.590;2023-01-26T03:24:00;100707.19;;;-0.15;100.00
51526;BME280;37611;51.794;21.590;2023-01-26T03:28:20;100698.25;;;-0.19;100.00
51526;BME280;37611;51.794;21.590;2023-01-26T03:32:23;100686.91;;;-0.24;100.00
51526;BME280;37611;51.794;21.590;2023-01-26T03:36:24;100689.33;;;-0.24;100.00
51526;BME280;37611;51.794;21.590;2023-01-26T03:40:25;100686.92;;;-0.24;100.00
51526;BME280;37611;51.794;21.590;2023-01-26T03:44:45;100693.36;;;-0.26;100.00
51526;BME280;37611;51.794;21.590;2023-01-26T03:49:06;100688.36;;;-0.29;100.00
51526;BME280;37611;51.794;21.590;2023-01-26T03:53:25;100689.25;;;-0.30;100.00
51526;BME280;37611;51.794;21.590;2023-01-26T03:57:47;100687.86;;;-0.34;100.00
51526;BME280;37611;51.794;21.590;2023-01-26T04:01:48;100693.87;;;-0.33;100.00
51526;BME280;37611;51.794;21.590;2023-01-26T04:06:08;100696.70;;;-0.35;100.00
51526;BME280;37611;51.794;21.590;2023-01-26T04:10:28;100693.95;;;-0.35;100.00
51526;BME280;37611;51.794;21.590;2023-01-26T04:14:29;100685.89;;;-0.35;100.00
51526;BME280;37611;51.794;21.590;2023-01-26T04:18:48;100676.77;;;-0.40;100.00
51526;BME280;37611;51.794;21.590;2023-01-26T04:23:16;100672.95;;;-0.43;100.00
51526;BME280;37611;51.794;21.590;2023-01-26T04:27:18;100668.41;;;-0.45;100.00
51526;BME280;37611;51.794;21.590;2023-01-26T04:31:19;100658.96;;;-0.50;100.00
51526;BME280;37611;51.794;21.590;2023-01-26T04:35:20;100659.32;;;-0.50;100.00
51526;BME280;37611;51.794;21.590;2023-01-26T04:39:21;100658.69;;;-0.47;100.00
51526;BME280;37611;51.794;21.590;2023-01-26T04:43:22;100657.86;;;-0.44;100.00
51526;BME280;37611;51.794;21.590;2023-01-26T04:47:23;100658.77;;;-0.45;100.00
51526;BME280;37611;51.794;21.590;2023-01-26T04:51:24;100662.85;;;-0.48;100.00
51526;BME280;37611;51.794;21.590;2023-01-26T04:55:25;100662.52;;;-0.49;100.00
51526;BME280;37611;51.794;21.590;2023-01-26T04:59:26;100660.67;;;-0.54;100.00
51526;BME280;37611;51.794;21.590;2023-01-26T05:03:28;100663.84;;;-0.56;100.00
51526;BME280;37611;51.794;21.590;2023-01-26T05:07:29;100665.73;;;-0.59;100.00
51526;BME280;37611;51.794;21.590;2023-01-26T05:11:30;100667.28;;;-0.63;100.00
51526;BME280;37611;51.794;21.590;2023-01-26T05:15:31;100673.23;;;-0.66;100.00
51526;BME280;37611;51.794;21.590;2023-01-26T05:19:32;100670.73;;;-0.68;100.00
51526;BME280;37611;51.794;21.590;2023-01-26T05:23:33;100666.48;;;-0.69;100.00
51526;BME280;37611;51.794;21.590;2023-01-26T05:27:34;100657.52;;;-0.72;100.00
51526;BME280;37611;51.794;21.590;2023-01-26T05:31:35;100658.28;;;-0.74;100.00
51526;BME280;37611;51.794;21.590;2023-01-26T05:35:36;100663.45;;;-0.75;100.00
51526;BME280;37611;51.794;21.590;2023-01-26T05:39:37;100662.35;;;-0.73;100.00
51526;BME280;37611;51.794;21.590;2023-01-26T05:43:38;100657.70;;;-0.77;100.00
51526;BME280;37611;51.794;21.590;2023-01-26T05:47:42;100657.90;;;-0.78;100.00
51526;BME280;37611;51.794;21.590;2023-01-26T05:51:44;100663.37;;;-0.77;100.00
51526;BME280;37611;51.794;21.590;2023-01-26T05:55:45;100661.02;;;-0.78;100.00
51526;BME280;37611;51.794;21.590;2023-01-26T05:59:46;100656.77;;;-0.80;100.00
51526;BME280;37611;51.794;21.590;2023-01-26T06:03:47;100651.05;;;-0.79;100.00
51526;BME280;37611;51.794;21.590;2023-01-26T06:07:48;100647.72;;;-0.81;100.00
51526;BME280;37611;51.794;21.590;2023-01-26T06:11:50;100645.69;;;-0.82;100.00
51526;BME280;37611;51.794;21.590;2023-01-26T06:15:51;100639.02;;;-0.83;100.00
51526;BME280;37611;51.794;21.590;2023-01-26T06:19:52;100639.51;;;-0.86;100.00
51526;BME280;37611;51.794;21.590;2023-01-26T06:23:53;100644.46;;;-0.85;100.00
51526;BME280;37611;51.794;21.590;2023-01-26T06:27:57;100653.13;;;-0.87;100.00
51526;BME280;37611;51.794;21.590;2023-01-26T06:31:59;100657.56;;;-0.86;100.00
51526;BME280;37611;51.794;21.590;2023-01-26T06:36:14;100670.14;;;-0.83;100.00
51526;BME280;37611;51.794;21.590;2023-01-26T06:40:15;100676.50;;;-0.79;100.00
51526;BME280;37611;51.794;21.590;2023-01-26T06:44:17;100680.95;;;-0.78;100.00
51526;BME280;37611;51.794;21.590;2023-01-26T06:48:18;100684.65;;;-0.76;100.00
51526;BME280;37611;51.794;21.590;2023-01-26T06:52:30;100672.98;;;-0.76;100.00
51526;BME280;37611;51.794;21.590;2023-01-26T06:56:31;100675.98;;;-0.79;100.00
51526;BME280;37611;51.794;21.590;2023-01-26T07:00:32;100674.03;;;-0.81;100.00
51526;BME280;37611;51.794;21.590;2023-01-26T07:04:33;100670.70;;;-0.79;100.00
51526;BME280;37611;51.794;21.590;2023-01-26T07:08:34;100668.02;;;-0.77;100.00
51526;BME280;37611;51.794;21.590;2023-01-26T07:12:44;100662.83;;;-0.76;100.00
51526;BME280;37611;51.794;21.590;2023-01-26T07:16:45;100655.94;;;-0.72;100.00
51526;BME280;37611;51.794;21.590;2023-01-26T07:20:46;100657.16;;;-0.68;100.00
51526;BME280;37611;51.794;21.590;2023-01-26T07:24:47;100658.79;;;-0.70;100.00
51526;BME280;37611;51.794;21.590;2023-01-26T07:28:48;100659.67;;;-0.71;100.00
51526;BME280;37611;51.794;21.590;2023-01-26T07:32:49;100657.75;;;-0.70;100.00
51526;BME280;37611;51.794;21.590;2023-01-26T07:36:51;100658.33;;;-0.67;100.00
51526;BME280;37611;51.794;21.590;2023-01-26T07:40:52;100648.37;;;-0.67;100.00
51526;BME280;37611;51.794;21.590;2023-01-26T07:44:53;100640.06;;;-0.66;100.00
51526;BME280;37611;51.794;21.590;2023-01-26T07:48:54;100636.55;;;-0.60;100.00
51526;BME280;37611;51.794;21.590;2023-01-26T07:52:59;100635.38;;;-0.58;100.00
51526;BME280;37611;51.794;21.590;2023-01-26T07:57:00;100631.84;;;-0.56;100.00
51526;BME280;37611;51.794;21.590;2023-01-26T08:01:12;100631.56;;;-0.57;100.00
51526;BME280;37611;51.794;21.590;2023-01-26T08:05:13;100624.96;;;-0.63;100.00
51526;BME280;37611;51.794;21.590;2023-01-26T08:09:15;100622.58;;;-0.68;100.00
51526;BME280;37611;51.794;21.590;2023-01-26T08:13:16;100622.81;;;-0.69;100.00
51526;BME280;37611;51.794;21.590;2023-01-26T08:17:17;100620.13;;;-0.67;100.00
51526;BME280;37611;51.794;21.590;2023-01-26T08:21:18;100618.03;;;-0.62;100.00
51526;BME280;37611;51.794;21.590;2023-01-26T08:25:19;100618.94;;;-0.55;100.00
51526;BME280;37611;51.794;21.590;2023-01-26T08:29:20;100615.70;;;-0.52;100.00
51526;BME280;37611;51.794;21.590;2023-01-26T08:33:22;100619.27;;;-0.55;100.00
51526;BME280;37611;51.794;21.590;2023-01-26T08:37:24;100624.89;;;-0.58;100.00
51526;BME280;37611;51.794;21.590;2023-01-26T08:41:25;100624.98;;;-0.60;100.00
51526;BME280;37611;51.794;21.590;2023-01-26T08:45:26;100626.46;;;-0.62;100.00
51526;BME280;37611;51.794;21.590;2023-01-26T08:49:27;100629.74;;;-0.59;100.00
51526;BME280;37611;51.794;21.590;2023-01-26T08:53:29;100631.16;;;-0.56;100.00
51526;BME280;37611;51.794;21.590;2023-01-26T08:57:31;100627.73;;;-0.52;100.00
51526;BME280;37611;51.794;21.590;2023-01-26T09:01:32;100633.61;;;-0.44;100.00
51526;BME280;37611;51.794;21.590;2023-01-26T09:05:36;100636.73;;;-0.45;100.00
51526;BME280;37611;51.794;21.590;2023-01-26T09:09:37;100635.86;;;-0.48;100.00
51526;BME280;37611;51.794;21.590;2023-01-26T09:13:39;100631.78;;;-0.50;100.00
51526;BME280;37611;51.794;21.590;2023-01-26T09:17:40;100632.02;;;-0.56;100.00
51526;BME280;37611;51.794;21.590;2023-01-26T09:21:42;100634.20;;;-0.58;100.00
51526;BME280;37611;51.794;21.590;2023-01-26T09:25:43;100634.04;;;-0.58;100.00
51526;BME280;37611;51.794;21.590;2023-01-26T09:29:45;100631.70;;;-0.52;100.00
51526;BME280;37611;51.794;21.590;2023-01-26T09:33:47;100629.66;;;-0.44;100.00
51526;BME280;37611;51.794;21.590;2023-01-26T09:37:49;100634.34;;;-0.37;100.00
51526;BME280;37611;51.794;21.590;2023-01-26T09:46:23;100636.27;;;-0.38;100.00
51526;BME280;37611;51.794;21.590;2023-01-26T09:50:47;100634.13;;;-0.44;100.00
51526;BME280;37611;51.794;21.590;2023-01-26T09:54:53;100622.96;;;-0.49;100.00
51526;BME280;37611;51.794;21.590;2023-01-26T09:59:02;100617.77;;;-0.52;100.00
51526;BME280;37611;51.794;21.590;2023-01-26T10:03:39;100617.04;;;-0.51;100.00
51526;BME280;37611;51.794;21.590;2023-01-26T10:07:42;100610.05;;;-0.41;100.00
51526;BME280;37611;51.794;21.590;2023-01-26T10:11:51;100601.23;;;-0.36;100.00
51526;BME280;37611;51.794;21.590;2023-01-26T10:16:04;100594.52;;;-0.32;100.00
51526;BME280;37611;51.794;21.590;2023-01-26T10:20:27;100593.54;;;-0.29;100.00
51526;BME280;37611;51.794;21.590;2023-01-26T10:24:32;100596.11;;;-0.33;100.00
51526;BME280;37611;51.794;21.590;2023-01-26T10:28:34;100599.91;;;-0.33;100.00
51526;BME280;37611;51.794;21.590;2023-01-26T10:32:36;100598.25;;;-0.27;100.00
51526;BME280;37611;51.794;21.590;2023-01-26T10:36:39;100589.13;;;-0.23;100.00
51526;BME280;37611;51.794;21.590;2023-01-26T10:40:43;100582.27;;;-0.24;100.00
51526;BME280;37611;51.794;21.590;2023-01-26T10:44:45;100581.92;;;-0.24;100.00
51526;BME280;37611;51.794;21.590;2023-01-26T10:48:51;100573.95;;;-0.26;100.00
51526;BME280;37611;51.794;21.590;2023-01-26T10:53:00;100564.70;;;-0.23;100.00
51526;BME280;37611;51.794;21.590;2023-01-26T10:57:04;100553.77;;;-0.21;100.00
51526;BME280;37611;51.794;21.590;2023-01-26T11:01:11;100542.00;;;-0.16;100.00
51526;BME280;37611;51.794;21.590;2023-01-26T11:05:18;100544.95;;;-0.13;100.00
51526;BME280;37611;51.794;21.590;2023-01-26T11:09:26;100537.11;;;-0.15;100.00
51526;BME280;37611;51.794;21.590;2023-01-26T11:13:29;100537.65;;;-0.19;100.00
51526;BME280;37611;51.794;21.590;2023-01-26T11:17:39;100534.78;;;-0.28;100.00
51526;BME280;37611;51.794;21.590;2023-01-26T11:21:52;100535.23;;;-0.33;100.00
51526;BME280;37611;51.794;21.590;2023-01-26T11:34:23;100507.76;;;-0.38;100.00
51526;BME280;37611;51.794;21.590;2023-01-26T11:38:38;100504.74;;;-0.37;100.00
51526;BME280;37611;51.794;21.590;2023-01-26T11:43:21;100499.62;;;-0.37;100.00
51526;BME280;37611;51.794;21.590;2023-01-26T12:04:21;100475.11;;;-0.55;100.00
51526;BME280;37611;51.794;21.590;2023-01-26T12:08:30;100473.70;;;-0.54;100.00
51526;BME280;37611;51.794;21.590;2023-01-26T12:12:46;100471.21;;;-0.53;100.00
51526;BME280;37611;51.794;21.590;2023-01-26T12:21:16;100463.81;;;-0.52;100.00
51526;BME280;37611;51.794;21.590;2023-01-26T12:25:29;100462.73;;;-0.51;100.00
51526;BME280;37611;51.794;21.590;2023-01-26T12:29:43;100458.60;;;-0.51;100.00
51526;BME280;37611;51.794;21.590;2023-01-26T12:33:50;100458.59;;;-0.55;100.00
51526;BME280;37611;51.794;21.590;2023-01-26T12:38:01;100458.33;;;-0.56;100.00
51526;BME280;37611;51.794;21.590;2023-01-26T12:46:44;100455.96;;;-0.50;100.00
51526;BME280;37611;51.794;21.590;2023-01-26T12:50:51;100454.38;;;-0.45;100.00
51526;BME280;37611;51.794;21.590;2023-01-26T12:55:10;100455.86;;;-0.44;100.00
51526;BME280;37611;51.794;21.590;2023-01-26T12:59:29;100460.73;;;-0.41;100.00
51526;BME280;37611;51.794;21.590;2023-01-26T13:04:04;100466.34;;;-0.47;100.00
51526;BME280;37611;51.794;21.590;2023-01-26T13:16:50;100461.36;;;-0.36;100.00
51526;BME280;37611;51.794;21.590;2023-01-26T13:20:51;100454.55;;;-0.34;99.96
51526;BME280;37611;51.794;21.590;2023-01-26T13:24:57;100454.23;;;-0.31;99.96
51526;BME280;37611;51.794;21.590;2023-01-26T13:33:24;100453.30;;;-0.26;99.67
51526;BME280;37611;51.794;21.590;2023-01-26T13:38:21;100449.98;;;-0.25;99.77
51526;BME280;37611;51.794;21.590;2023-01-26T13:42:22;100450.27;;;-0.24;99.79
51526;BME280;37611;51.794;21.590;2023-01-26T13:46:37;100449.95;;;-0.24;99.50
51526;BME280;37611;51.794;21.590;2023-01-26T13:50:41;100445.73;;;-0.26;99.30
51526;BME280;37611;51.794;21.590;2023-01-26T13:54:43;100447.15;;;-0.19;100.00
51526;BME280;37611;51.794;21.590;2023-01-26T13:58:44;100445.16;;;-0.14;99.79
51526;BME280;37611;51.794;21.590;2023-01-26T14:02:47;100448.70;;;-0.09;99.81
51526;BME280;37611;51.794;21.590;2023-01-26T14:07:08;100450.44;;;-0.13;99.82
51526;BME280;37611;51.794;21.590;2023-01-26T14:11:19;100444.98;;;-0.21;98.58
51526;BME280;37611;51.794;21.590;2023-01-26T14:15:26;100444.16;;;-0.29;98.62
51526;BME280;37611;51.794;21.590;2023-01-26T14:19:28;100436.00;;;-0.31;98.82
51526;BME280;37611;51.794;21.590;2023-01-26T14:23:34;100438.11;;;-0.36;98.51
51526;BME280;37611;51.794;21.590;2023-01-26T14:27:39;100436.00;;;-0.42;98.15
51526;BME280;37611;51.794;21.590;2023-01-26T14:31:40;100434.45;;;-0.45;98.31
51526;BME280;37611;51.794;21.590;2023-01-26T14:35:53;100430.52;;;-0.46;98.73
51526;BME280;37611;51.794;21.590;2023-01-26T14:40:18;100435.84;;;-0.50;98.18
51526;BME280;37611;51.794;21.590;2023-01-26T14:44:20;100434.13;;;-0.46;98.61
51526;BME280;37611;51.794;21.590;2023-01-26T14:48:26;100433.27;;;-0.39;99.69
51526;BME280;37611;51.794;21.590;2023-01-26T14:52:32;100430.73;;;-0.33;100.00
51526;BME280;37611;51.794;21.590;2023-01-26T14:56:37;100425.82;;;-0.23;99.92
51526;BME280;37611;51.794;21.590;2023-01-26T15:00:39;100417.37;;;-0.19;99.75
51526;BME280;37611;51.794;21.590;2023-01-26T15:04:41;100407.67;;;-0.18;99.61
51526;BME280;37611;51.794;21.590;2023-01-26T15:08:56;100411.67;;;-0.22;99.46
51526;BME280;37611;51.794;21.590;2023-01-26T15:17:38;100401.60;;;-0.35;99.46
51526;BME280;37611;51.794;21.590;2023-01-26T15:21:40;100409.23;;;-0.40;99.07
51526;BME280;37611;51.794;21.590;2023-01-26T15:25:43;100410.16;;;-0.49;98.96
51526;BME280;37611;51.794;21.590;2023-01-26T15:29:44;100409.13;;;-0.56;98.80
51526;BME280;37611;51.794;21.590;2023-01-26T15:33:51;100407.38;;;-0.63;99.14
51526;BME280;37611;51.794;21.590;2023-01-26T15:38:18;100409.04;;;-0.65;99.59
51526;BME280;37611;51.794;21.590;2023-01-26T15:42:21;100407.35;;;-0.66;99.82
51526;BME280;37611;51.794;21.590;2023-01-26T15:46:24;100408.19;;;-0.65;99.98
51526;BME280;37611;51.794;21.590;2023-01-26T15:50:25;100409.59;;;-0.62;100.00
51526;BME280;37611;51.794;21.590;2023-01-26T15:54:26;100406.92;;;-0.61;100.00
51526;BME280;37611;51.794;21.590;2023-01-26T15:58:27;100411.51;;;-0.59;100.00
51526;BME280;37611;51.794;21.590;2023-01-26T16:02:31;100408.76;;;-0.60;100.00
51526;BME280;37611;51.794;21.590;2023-01-26T16:06:32;100407.32;;;-0.58;100.00
51526;BME280;37611;51.794;21.590;2023-01-26T16:10:33;100403.09;;;-0.60;100.00
51526;BME280;37611;51.794;21.590;2023-01-26T16:14:34;100409.86;;;-0.61;100.00
51526;BME280;37611;51.794;21.590;2023-01-26T16:18:35;100418.91;;;-0.63;100.00
51526;BME280;37611;51.794;21.590;2023-01-26T16:22:36;100414.77;;;-0.67;100.00
51526;BME280;37611;51.794;21.590;2023-01-26T16:26:38;100416.38;;;-0.71;100.00
51526;BME280;37611;51.794;21.590;2023-01-26T16:30:41;100418.85;;;-0.73;100.00
51526;BME280;37611;51.794;21.590;2023-01-26T16:34:43;100420.09;;;-0.70;100.00
51526;BME280;37611;51.794;21.590;2023-01-26T16:38:45;100417.64;;;-0.65;100.00
51526;BME280;37611;51.794;21.590;2023-01-26T16:42:51;100422.67;;;-0.55;100.00
51526;BME280;37611;51.794;21.590;2023-01-26T16:46:53;100417.31;;;-0.47;100.00
51526;BME280;37611;51.794;21.590;2023-01-26T16:50:54;100421.24;;;-0.43;100.00
51526;BME280;37611;51.794;21.590;2023-01-26T16:54:55;100418.73;;;-0.41;100.00
51526;BME280;37611;51.794;21.590;2023-01-26T16:58:56;100420.27;;;-0.40;100.00
51526;BME280;37611;51.794;21.590;2023-01-26T17:02:58;100422.14;;;-0.44;100.00
51526;BME280;37611;51.794;21.590;2023-01-26T17:06:59;100427.92;;;-0.46;100.00
51526;BME280;37611;51.794;21.590;2023-01-26T17:11:00;100429.41;;;-0.52;100.00
51526;BME280;37611;51.794;21.590;2023-01-26T17:15:03;100429.25;;;-0.60;100.00
51526;BME280;37611;51.794;21.590;2023-01-26T17:19:05;100435.05;;;-0.63;100.00
51526;BME280;37611;51.794;21.590;2023-01-26T17:23:07;100431.91;;;-0.62;100.00
51526;BME280;37611;51.794;21.590;2023-01-26T17:27:08;100425.13;;;-0.56;100.00
51526;BME280;37611;51.794;21.590;2023-01-26T17:31:14;100428.42;;;-0.46;100.00
51526;BME280;37611;51.794;21.590;2023-01-26T17:35:19;100433.73;;;-0.38;100.00
51526;BME280;37611;51.794;21.590;2023-01-26T17:39:20;100430.17;;;-0.39;100.00
51526;BME280;37611;51.794;21.590;2023-01-26T17:43:23;100424.33;;;-0.42;100.00
51526;BME280;37611;51.794;21.590;2023-01-26T17:47:24;100426.65;;;-0.44;100.00
51526;BME280;37611;51.794;21.590;2023-01-26T17:51:25;100424.71;;;-0.47;100.00
51526;BME280;37611;51.794;21.590;2023-01-26T17:55:26;100415.66;;;-0.53;100.00
51526;BME280;37611;51.794;21.590;2023-01-26T17:59:27;100406.33;;;-0.59;100.00
51526;BME280;37611;51.794;21.590;2023-01-26T18:03:28;100404.73;;;-0.61;100.00
51526;BME280;37611;51.794;21.590;2023-01-26T18:07:29;100401.49;;;-0.59;100.00
51526;BME280;37611;51.794;21.590;2023-01-26T18:11:30;100402.73;;;-0.55;100.00
51526;BME280;37611;51.794;21.590;2023-01-26T18:15:35;100395.98;;;-0.55;100.00
51526;BME280;37611;51.794;21.590;2023-01-26T18:19:36;100393.89;;;-0.58;100.00
51526;BME280;37611;51.794;21.590;2023-01-26T18:23:37;100391.17;;;-0.62;100.00
51526;BME280;37611;51.794;21.590;2023-01-26T18:27:38;100396.11;;;-0.65;100.00
51526;BME280;37611;51.794;21.590;2023-01-26T18:31:39;100390.45;;;-0.65;100.00
51526;BME280;37611;51.794;21.590;2023-01-26T18:35:40;100389.86;;;-0.71;100.00
51526;BME280;37611;51.794;21.590;2023-01-26T18:39:42;100391.04;;;-0.78;100.00
51526;BME280;37611;51.794;21.590;2023-01-26T18:43:43;100386.69;;;-0.80;100.00
51526;BME280;37611;51.794;21.590;2023-01-26T18:47:44;100388.36;;;-0.80;100.00
51526;BME280;37611;51.794;21.590;2023-01-26T18:51:46;100383.80;;;-0.77;100.00
51526;BME280;37611;51.794;21.590;2023-01-26T18:55:50;100387.50;;;-0.76;100.00
51526;BME280;37611;51.794;21.590;2023-01-26T18:59:54;100386.17;;;-0.73;100.00
51526;BME280;37611;51.794;21.590;2023-01-26T19:03:55;100393.92;;;-0.66;100.00
51526;BME280;37611;51.794;21.590;2023-01-26T19:07:58;100389.91;;;-0.61;100.00
51526;BME280;37611;51.794;21.590;2023-01-26T19:12:09;100389.39;;;-0.57;100.00
51526;BME280;37611;51.794;21.590;2023-01-26T19:16:12;100387.65;;;-0.60;100.00
51526;BME280;37611;51.794;21.590;2023-01-26T19:20:13;100389.47;;;-0.66;100.00
51526;BME280;37611;51.794;21.590;2023-01-26T19:24:14;100391.16;;;-0.69;100.00
51526;BME280;37611;51.794;21.590;2023-01-26T19:28:16;100395.44;;;-0.68;100.00
51526;BME280;37611;51.794;21.590;2023-01-26T19:32:17;100394.48;;;-0.67;100.00
51526;BME280;37611;51.794;21.590;2023-01-26T19:36:18;100396.59;;;-0.67;100.00
51526;BME280;37611;51.794;21.590;2023-01-26T19:40:19;100395.61;;;-0.69;100.00
51526;BME280;37611;51.794;21.590;2023-01-26T19:44:20;100396.54;;;-0.70;100.00
51526;BME280;37611;51.794;21.590;2023-01-26T19:48:24;100399.11;;;-0.70;100.00
51526;BME280;37611;51.794;21.590;2023-01-26T19:52:27;100399.48;;;-0.70;100.00
51526;BME280;37611;51.794;21.590;2023-01-26T19:56:31;100406.39;;;-0.79;100.00
51526;BME280;37611;51.794;21.590;2023-01-26T20:00:32;100409.47;;;-0.82;100.00
51526;BME280;37611;51.794;21.590;2023-01-26T20:04:33;100411.83;;;-0.85;100.00
51526;BME280;37611;51.794;21.590;2023-01-26T20:08:34;100411.32;;;-0.85;100.00
51526;BME280;37611;51.794;21.590;2023-01-26T20:12:35;100411.05;;;-0.83;100.00
51526;BME280;37611;51.794;21.590;2023-01-26T20:16:57;100413.60;;;-0.79;100.00
51526;BME280;37611;51.794;21.590;2023-01-26T20:20:58;100412.83;;;-0.69;100.00
51526;BME280;37611;51.794;21.590;2023-01-26T20:24:59;100402.08;;;-0.64;100.00
51526;BME280;37611;51.794;21.590;2023-01-26T20:29:01;100400.27;;;-0.55;100.00
51526;BME280;37611;51.794;21.590;2023-01-26T20:33:03;100398.39;;;-0.55;100.00
51526;BME280;37611;51.794;21.590;2023-01-26T20:37:04;100397.20;;;-0.62;100.00
51526;BME280;37611;51.794;21.590;2023-01-26T20:41:10;100389.67;;;-0.70;100.00
51526;BME280;37611;51.794;21.590;2023-01-26T20:45:11;100387.41;;;-0.81;100.00
51526;BME280;37611;51.794;21.590;2023-01-26T20:49:15;100385.14;;;-0.88;100.00
51526;BME280;37611;51.794;21.590;2023-01-26T20:53:18;100383.45;;;-0.89;100.00
51526;BME280;37611;51.794;21.590;2023-01-26T20:57:19;100377.92;;;-0.84;100.00
51526;BME280;37611;51.794;21.590;2023-01-26T21:01:21;100372.92;;;-0.84;100.00
51526;BME280;37611;51.794;21.590;2023-01-26T21:05:22;100372.48;;;-0.78;100.00
51526;BME280;37611;51.794;21.590;2023-01-26T21:09:23;100374.44;;;-0.68;100.00
51526;BME280;37611;51.794;21.590;2023-01-26T21:13:25;100378.40;;;-0.65;100.00
51526;BME280;37611;51.794;21.590;2023-01-26T21:17:27;100376.43;;;-0.67;100.00
51526;BME280;37611;51.794;21.590;2023-01-26T21:21:28;100381.77;;;-0.70;100.00
51526;BME280;37611;51.794;21.590;2023-01-26T21:25:29;100386.48;;;-0.76;100.00
51526;BME280;37611;51.794;21.590;2023-01-26T21:29:31;100379.77;;;-0.80;100.00
51526;BME280;37611;51.794;21.590;2023-01-26T21:33:35;100375.08;;;-0.79;100.00
51526;BME280;37611;51.794;21.590;2023-01-26T21:37:36;100372.52;;;-0.72;100.00
51526;BME280;37611;51.794;21.590;2023-01-26T21:41:37;100373.91;;;-0.65;100.00
51526;BME280;37611;51.794;21.590;2023-01-26T21:45:57;100370.27;;;-0.56;100.00
51526;BME280;37611;51.794;21.590;2023-01-26T21:49:58;100373.27;;;-0.55;100.00
51526;BME280;37611;51.794;21.590;2023-01-26T21:54:00;100383.86;;;-0.53;100.00